createdAt,value
2023-07-11T00:00:04.005Z,5.60
2023-07-11T00:02:37.645Z,5.18
2023-07-11T00:05:11.460Z,4.65
2023-07-11T00:10:20.787Z,5.17
2023-07-11T00:12:54.224Z,5.15
2023-07-11T00:15:28.987Z,5.32
2023-07-11T00:18:02.350Z,5.18
2023-07-11T00:20:35.742Z,6.28
2023-07-11T00:23:09.047Z,5.60
2023-07-11T00:25:42.543Z,4.75
2023-07-11T00:28:16.062Z,4.97
2023-07-11T00:30:50.964Z,5.25
2023-07-11T00:33:24.258Z,4.72
2023-07-11T00:35:57.530Z,4.75
2023-07-11T00:38:31.953Z,5.25
2023-07-11T00:41:09.161Z,5.20
2023-07-11T00:43:42.465Z,5.57
2023-07-11T00:46:19.902Z,5.15
2023-07-11T00:48:56.576Z,4.38
2023-07-11T00:51:33.937Z,5.70
2023-07-11T00:54:10.955Z,4.65
2023-07-11T00:56:47.464Z,5.32
2023-07-11T00:59:23.310Z,4.97
2023-07-11T01:02:04.743Z,5.55
2023-07-11T01:04:40.154Z,4.30
2023-07-11T01:07:18.256Z,4.60
2023-07-11T01:09:51.731Z,5.13
2023-07-11T01:12:26.097Z,4.75
2023-07-11T01:14:59.565Z,4.93
2023-07-11T01:17:36.039Z,4.05
2023-07-11T01:20:11.742Z,4.78
2023-07-11T01:22:46.922Z,4.05
2023-07-11T01:25:20.575Z,4.10
2023-07-11T01:27:53.926Z,4.32
2023-07-11T01:30:27.251Z,4.20
2023-07-11T01:33:00.736Z,4.28
2023-07-11T01:35:34.204Z,3.95
2023-07-11T01:38:08.790Z,3.58
2023-07-11T01:40:43.028Z,3.58
2023-07-11T01:43:17.100Z,4.30
2023-07-11T01:45:50.460Z,4.13
2023-07-11T01:48:23.775Z,4.45
2023-07-11T01:50:57.121Z,4.40
2023-07-11T01:53:32.055Z,4.05
2023-07-11T01:56:07.256Z,4.38
2023-07-11T01:58:40.941Z,3.63
2023-07-11T02:01:14.336Z,3.55
2023-07-11T02:03:47.708Z,4.00
2023-07-11T02:06:21.068Z,3.38
2023-07-11T02:08:55.700Z,4.03
2023-07-11T02:11:28.908Z,3.65
2023-07-11T02:14:02.250Z,2.90
2023-07-11T02:16:45.286Z,3.63
2023-07-11T02:19:22.956Z,3.70
2023-07-11T02:21:56.360Z,3.72
2023-07-11T02:24:32.142Z,3.28
2023-07-11T02:27:06.011Z,3.45
2023-07-11T02:32:12.410Z,2.90
2023-07-11T02:34:45.652Z,3.00
2023-07-11T02:37:18.933Z,3.75
2023-07-11T02:39:53.704Z,3.60
2023-07-11T02:42:26.946Z,3.50
2023-07-11T02:45:00.257Z,3.05
2023-07-11T02:47:35.465Z,3.85
2023-07-11T02:50:10.677Z,3.20
2023-07-11T02:52:43.947Z,3.50
2023-07-11T02:55:19.347Z,2.85
2023-07-11T02:57:52.802Z,3.05
2023-07-11T03:00:26.042Z,3.35
2023-07-11T03:02:59.649Z,3.40
2023-07-11T03:05:32.907Z,3.25
2023-07-11T03:08:06.695Z,2.95
2023-07-11T03:15:47.873Z,3.00
2023-07-11T03:18:21.413Z,3.08
2023-07-11T03:20:58.760Z,3.53
2023-07-11T03:23:32.528Z,3.00
2023-07-11T03:26:07.378Z,3.15
2023-07-11T03:28:40.815Z,3.00
2023-07-11T03:31:14.071Z,3.05
2023-07-11T03:33:48.449Z,2.90
2023-07-11T03:36:21.966Z,2.53
2023-07-11T03:38:55.243Z,3.28
2023-07-11T03:41:29.829Z,2.72
2023-07-11T03:44:03.494Z,3.00
2023-07-11T03:46:36.818Z,2.95
2023-07-11T03:49:10.429Z,2.70
2023-07-11T03:51:45.810Z,3.10
2023-07-11T03:54:19.372Z,2.42
2023-07-11T03:56:55.165Z,2.70
2023-07-11T03:59:28.732Z,2.70
2023-07-11T04:02:02.121Z,3.10
2023-07-11T04:04:35.385Z,2.83
2023-07-11T04:07:09.369Z,2.90
2023-07-11T04:09:43.378Z,2.70
2023-07-11T04:12:18.006Z,2.80
2023-07-11T04:14:51.298Z,2.58
2023-07-11T04:17:24.533Z,3.10
2023-07-11T04:19:57.805Z,3.67
2023-07-11T04:22:31.752Z,3.20
2023-07-11T04:27:39.914Z,3.30
2023-07-11T04:30:14.028Z,2.97
2023-07-11T04:32:50.097Z,2.65
2023-07-11T04:35:23.527Z,3.45
2023-07-11T04:37:56.722Z,3.80
2023-07-11T04:40:30.056Z,4.18
2023-07-11T04:43:04.715Z,3.97
2023-07-11T04:45:37.998Z,3.70
2023-07-11T04:48:11.338Z,4.18
2023-07-11T04:50:44.765Z,3.60
2023-07-11T04:53:18.358Z,4.25
2023-07-11T04:55:57.161Z,4.03
2023-07-11T04:58:33.078Z,4.25
2023-07-11T05:01:08.552Z,3.53
2023-07-11T05:03:42.852Z,3.03
2023-07-11T05:06:16.324Z,3.40
2023-07-11T05:08:49.612Z,3.45
2023-07-11T05:11:23.492Z,3.65
2023-07-11T05:13:58.173Z,3.17
2023-07-11T05:16:33.125Z,3.67
2023-07-11T05:19:06.478Z,3.33
2023-07-11T05:21:40.135Z,3.30
2023-07-11T05:24:13.379Z,3.40
2023-07-11T05:26:46.726Z,3.72
2023-07-11T05:29:21.324Z,3.70
2023-07-11T05:31:54.740Z,3.53
2023-07-11T05:34:28.102Z,2.95
2023-07-11T05:37:01.459Z,3.15
2023-07-11T05:39:34.709Z,2.75
2023-07-11T05:42:08.633Z,2.83
2023-07-11T05:44:43.436Z,2.28
2023-07-11T05:47:16.734Z,3.10
2023-07-11T05:49:49.976Z,3.22
2023-07-11T05:52:23.382Z,3.00
2023-07-11T05:54:56.711Z,3.15
2023-07-11T05:57:29.983Z,2.80
2023-07-11T06:00:06.165Z,3.22
2023-07-11T06:02:45.872Z,2.55
2023-07-11T06:05:19.177Z,3.00
2023-07-11T06:07:52.921Z,2.72
2023-07-11T06:12:59.252Z,3.30
2023-07-11T06:15:33.934Z,2.75
2023-07-11T06:18:07.341Z,3.40
2023-07-11T06:20:40.735Z,3.15
2023-07-11T06:23:14.100Z,2.00
2023-07-11T06:25:47.351Z,3.15
2023-07-11T06:28:20.689Z,2.88
2023-07-11T06:30:58.638Z,2.53
2023-07-11T06:33:32.013Z,2.78
2023-07-11T06:36:07.461Z,2.58
2023-07-11T06:38:40.825Z,3.47
2023-07-11T06:41:14.079Z,3.50
2023-07-11T06:43:47.539Z,3.70
2023-07-11T06:46:22.531Z,3.78
2023-07-11T06:48:56.800Z,3.90
2023-07-11T06:51:30.856Z,4.30
2023-07-11T06:54:04.494Z,5.72
2023-07-11T06:56:37.786Z,8.45
2023-07-11T06:59:11.290Z,4.65
2023-07-11T07:01:45.924Z,7.13
2023-07-11T07:04:19.292Z,6.82
2023-07-11T07:06:52.613Z,8.80
2023-07-11T07:09:27.655Z,9.70
2023-07-11T07:12:01.254Z,9.70
2023-07-11T07:14:34.575Z,9.90
2023-07-11T07:17:09.417Z,9.50
2023-07-11T07:19:44.602Z,10.77
2023-07-11T07:22:17.969Z,11.35
2023-07-11T07:24:51.389Z,11.27
2023-07-11T07:27:28.988Z,11.73
2023-07-11T07:30:02.625Z,11.05
2023-07-11T07:32:37.347Z,12.73
2023-07-11T07:35:10.953Z,11.82
2023-07-11T07:37:44.236Z,11.10
2023-07-11T07:40:18.677Z,12.57
2023-07-11T07:42:51.884Z,10.27
2023-07-11T07:45:25.232Z,10.85
2023-07-11T07:47:59.859Z,11.27
2023-07-11T07:50:33.074Z,11.27
2023-07-11T07:53:06.267Z,9.45
2023-07-11T07:55:40.993Z,11.10
2023-07-11T07:58:17.163Z,11.18
2023-07-11T08:00:54.950Z,10.93
2023-07-11T08:03:29.772Z,10.95
2023-07-11T08:06:14.614Z,10.52
2023-07-11T08:08:51.375Z,9.07
2023-07-11T08:11:24.878Z,8.88
2023-07-11T08:14:00.496Z,11.23
2023-07-11T08:16:34.563Z,8.60
2023-07-11T08:24:15.865Z,11.18
2023-07-11T08:26:49.099Z,9.88
2023-07-11T08:29:29.983Z,9.50
2023-07-11T08:32:03.644Z,9.35
2023-07-11T08:34:38.294Z,9.25
2023-07-11T08:37:12.178Z,8.45
2023-07-11T08:39:45.463Z,9.93
2023-07-11T08:42:33.755Z,7.72
2023-07-11T08:45:16.477Z,9.88
2023-07-11T08:47:58.217Z,8.27
2023-07-11T08:50:36.573Z,9.50
2023-07-11T08:53:14.660Z,8.93
2023-07-11T08:55:53.013Z,7.25
2023-07-11T08:58:30.352Z,8.10
2023-07-11T09:01:07.005Z,8.02
2023-07-11T09:03:46.099Z,6.85
2023-07-11T09:06:24.372Z,7.88
2023-07-11T09:08:57.655Z,7.68
2023-07-11T09:11:39.812Z,7.97
2023-07-11T09:14:28.956Z,8.00
2023-07-11T09:17:09.165Z,7.82
2023-07-11T09:19:57.835Z,8.65
2023-07-11T09:22:42.733Z,7.93
2023-07-11T09:25:20.871Z,7.82
2023-07-11T09:27:58.661Z,7.10
2023-07-11T09:30:35.242Z,6.40
2023-07-11T09:33:15.974Z,8.57
2023-07-11T09:35:51.146Z,7.43
2023-07-11T09:38:30.055Z,6.80
2023-07-11T09:41:05.886Z,7.43
2023-07-11T09:43:39.139Z,6.05
2023-07-11T09:46:14.816Z,7.75
2023-07-11T09:48:51.871Z,7.65
2023-07-11T09:51:29.639Z,6.63
2023-07-11T09:54:07.340Z,5.82
2023-07-11T09:56:46.496Z,7.30
2023-07-11T09:59:21.844Z,6.60
2023-07-11T10:01:59.797Z,6.30
2023-07-11T10:04:33.268Z,6.30
2023-07-11T10:07:06.879Z,5.97
2023-07-11T10:12:23.733Z,5.90
2023-07-11T10:15:00.602Z,6.65
2023-07-11T10:17:36.323Z,6.32
2023-07-11T10:20:21.574Z,6.57
2023-07-11T10:23:03.167Z,7.13
2023-07-11T10:25:38.004Z,6.97
2023-07-11T10:28:23.801Z,6.38
2023-07-11T10:30:59.451Z,5.55
2023-07-11T10:33:48.386Z,6.88
2023-07-11T10:36:32.110Z,5.75
2023-07-11T10:39:10.427Z,5.88
2023-07-11T10:41:51.025Z,5.80
2023-07-11T10:44:29.498Z,5.63
2023-07-11T10:47:04.135Z,5.65
2023-07-11T10:49:42.839Z,5.35
2023-07-11T10:52:21.220Z,4.65
2023-07-11T10:55:01.157Z,4.38
2023-07-11T10:57:44.983Z,5.95
2023-07-11T11:00:22.024Z,5.90
2023-07-11T11:03:05.275Z,5.50
2023-07-11T11:05:48.194Z,5.18
2023-07-11T11:08:31.075Z,5.82
2023-07-11T11:11:12.018Z,5.15
2023-07-11T11:13:59.240Z,5.35
2023-07-11T11:16:36.932Z,5.65
2023-07-11T11:19:20.590Z,5.60
2023-07-11T11:22:01.528Z,5.57
2023-07-11T11:24:45.364Z,5.30
2023-07-11T11:27:34.599Z,5.45
2023-07-11T11:30:22.044Z,6.03
2023-07-11T11:33:06.126Z,5.43
2023-07-11T11:35:47.557Z,4.97
2023-07-11T11:38:42.106Z,5.15
2023-07-11T11:41:17.737Z,5.07
2023-07-11T11:46:34.635Z,5.25
2023-07-11T11:51:50.966Z,4.75
2023-07-11T11:54:26.444Z,4.88
2023-07-11T11:57:01.579Z,5.07
2023-07-11T11:59:35.156Z,5.32
2023-07-11T12:02:17.339Z,5.82
2023-07-11T12:05:18.344Z,4.88
2023-07-11T12:08:19.267Z,4.03
2023-07-11T12:11:22.110Z,3.95
2023-07-11T12:14:20.707Z,4.53
2023-07-11T12:16:55.171Z,5.00
2023-07-11T12:19:33.989Z,4.40
2023-07-11T12:22:08.468Z,5.10
2023-07-11T12:24:44.827Z,4.78
2023-07-11T12:28:01.836Z,4.72
2023-07-11T12:30:44.228Z,4.22
2023-07-11T12:33:38.170Z,4.30
2023-07-11T12:36:47.810Z,4.82
2023-07-11T12:39:36.564Z,4.38
2023-07-11T12:42:20.975Z,4.50
2023-07-11T12:44:54.406Z,4.65
2023-07-11T12:47:29.424Z,5.00
2023-07-11T12:50:03.542Z,5.15
2023-07-11T12:52:38.291Z,5.10
2023-07-11T12:55:13.532Z,3.95
2023-07-11T12:57:47.029Z,4.45
2023-07-11T13:00:22.540Z,4.55
2023-07-11T13:02:57.444Z,4.15
2023-07-11T13:05:33.653Z,4.03
2023-07-11T13:08:17.007Z,4.13
2023-07-11T13:10:51.546Z,4.28
2023-07-11T13:13:26.891Z,4.30
2023-07-11T13:16:03.123Z,4.25
2023-07-11T13:18:39.249Z,4.25
2023-07-11T13:21:12.738Z,4.07
2023-07-11T13:23:48.641Z,4.05
2023-07-11T13:26:24.497Z,3.75
2023-07-11T13:29:06.337Z,5.25
2023-07-11T13:31:41.009Z,4.20
2023-07-11T13:34:16.395Z,3.97
2023-07-11T13:36:51.673Z,3.85
2023-07-11T13:39:27.709Z,3.33
2023-07-11T13:42:03.559Z,3.83
2023-07-11T13:44:40.944Z,4.68
2023-07-11T13:47:16.932Z,3.67
2023-07-11T13:50:04.014Z,4.03
2023-07-11T13:52:41.245Z,3.85
2023-07-11T13:55:20.389Z,4.15
2023-07-11T13:57:56.157Z,4.25
2023-07-11T14:00:29.864Z,3.55
2023-07-11T14:03:04.726Z,3.72
2023-07-11T14:05:38.223Z,4.03
2023-07-11T14:08:12.454Z,3.65
2023-07-11T14:10:48.829Z,4.05
2023-07-11T14:13:25.215Z,3.30
2023-07-11T14:15:58.849Z,4.05
2023-07-11T14:18:32.113Z,3.67
2023-07-11T14:21:06.163Z,3.58
2023-07-11T14:23:39.933Z,4.00
2023-07-11T14:26:16.406Z,3.17
2023-07-11T14:28:50.230Z,4.28
2023-07-11T14:31:24.484Z,3.65
2023-07-11T14:33:57.905Z,3.15
2023-07-11T14:36:31.291Z,3.40
2023-07-11T14:39:04.981Z,3.78
2023-07-11T14:41:49.032Z,3.50
2023-07-11T14:44:25.829Z,3.30
2023-07-11T14:46:59.880Z,3.45
2023-07-11T14:49:33.507Z,3.97
2023-07-11T14:55:02.573Z,3.25
2023-07-11T15:00:23.533Z,3.22
2023-07-11T15:02:57.795Z,2.90
2023-07-11T15:09:55.839Z,3.22
2023-07-11T15:11:33.127Z,3.17
2023-07-11T15:16:51.772Z,3.25
2023-07-11T15:19:27.742Z,3.42
2023-07-11T15:22:05.928Z,3.70
2023-07-11T15:24:42.550Z,3.20
2023-07-11T15:27:17.023Z,3.38
2023-07-11T15:29:51.781Z,3.30
2023-07-11T15:32:27.254Z,3.30
2023-07-11T15:35:00.551Z,3.42
2023-07-11T15:37:35.458Z,3.40
2023-07-11T15:40:15.385Z,3.20
2023-07-11T15:42:48.983Z,2.80
2023-07-11T15:45:25.836Z,3.15
2023-07-11T15:47:59.890Z,3.20
2023-07-11T15:50:33.219Z,3.47
2023-07-11T15:53:06.582Z,3.30
2023-07-11T15:55:41.037Z,3.00
2023-07-11T15:58:18.083Z,3.15
2023-07-11T16:00:53.296Z,3.88
2023-07-11T16:03:28.186Z,3.35
2023-07-11T16:06:01.998Z,3.30
2023-07-11T16:11:15.108Z,3.50
2023-07-11T16:13:49.210Z,3.17
2023-07-11T16:18:58.164Z,3.22
2023-07-11T16:21:32.210Z,3.00
2023-07-11T16:24:12.992Z,3.05
2023-07-11T16:26:46.890Z,2.60
2023-07-11T16:29:26.055Z,2.80
2023-07-11T16:32:03.071Z,3.33
2023-07-11T16:34:36.353Z,3.40
2023-07-11T16:37:19.221Z,2.90
2023-07-11T16:39:53.188Z,2.67
2023-07-11T16:42:26.567Z,3.28
2023-07-11T16:44:59.804Z,3.20
2023-07-11T16:47:34.543Z,3.45
2023-07-11T16:50:17.264Z,2.55
2023-07-11T16:52:51.045Z,3.20
2023-07-11T16:55:25.228Z,2.88
2023-07-11T16:57:58.473Z,2.92
2023-07-11T17:00:31.702Z,2.60
2023-07-11T17:03:12.584Z,3.63
2023-07-11T17:05:47.041Z,3.10
2023-07-11T17:08:21.887Z,3.20
2023-07-11T17:10:55.232Z,3.03
2023-07-11T17:13:31.335Z,3.17
2023-07-11T17:16:07.517Z,2.75
2023-07-11T17:18:42.448Z,2.72
2023-07-11T17:21:16.286Z,2.65
2023-07-11T17:26:22.947Z,3.38
2023-07-11T17:28:56.300Z,2.63
2023-07-11T17:31:29.656Z,3.20
2023-07-11T17:34:04.418Z,3.15
2023-07-11T17:36:38.752Z,2.75
2023-07-11T17:39:15.069Z,2.75
2023-07-11T17:42:01.470Z,3.20
2023-07-11T17:44:42.296Z,2.13
2023-07-11T17:49:57.404Z,2.72
2023-07-11T17:52:32.841Z,2.70
2023-07-11T17:55:06.868Z,2.60
2023-07-11T17:57:40.517Z,2.90
2023-07-11T18:00:16.358Z,2.80
2023-07-11T18:03:00.153Z,2.72
2023-07-11T18:05:36.273Z,2.92
2023-07-11T18:08:14.043Z,2.83
2023-07-11T18:10:50.563Z,2.95
2023-07-11T18:13:23.823Z,2.30
2023-07-11T18:15:57.098Z,2.78
2023-07-11T18:18:33.421Z,2.92
2023-07-11T18:21:19.404Z,3.15
2023-07-11T18:23:52.666Z,2.50
2023-07-11T18:26:25.884Z,2.65
2023-07-11T18:28:59.149Z,2.35
2023-07-11T18:31:32.436Z,3.03
2023-07-11T18:34:05.704Z,3.25
2023-07-11T18:36:41.169Z,2.70
2023-07-11T18:39:14.477Z,3.25
2023-07-11T18:41:47.717Z,2.85
2023-07-11T18:44:20.990Z,2.83
2023-07-11T18:46:54.364Z,3.17
2023-07-11T18:49:27.676Z,2.53
2023-07-11T18:52:02.362Z,2.67
2023-07-11T18:54:36.271Z,2.47
2023-07-11T18:57:12.852Z,2.58
2023-07-11T18:59:46.619Z,2.83
2023-07-11T19:05:02.546Z,2.70
2023-07-11T19:07:37.802Z,2.35
2023-07-11T19:10:20.342Z,2.75
2023-07-11T19:12:54.326Z,2.35
2023-07-11T19:15:30.394Z,2.35
2023-07-11T19:18:06.261Z,2.50
2023-07-11T19:20:41.326Z,3.08
2023-07-11T19:23:23.378Z,2.92
2023-07-11T19:25:57.660Z,2.53
2023-07-11T19:28:32.213Z,2.90
2023-07-11T19:31:05.499Z,2.67
2023-07-11T19:33:38.848Z,1.90
2023-07-11T19:36:17.980Z,2.42
2023-07-11T19:38:52.621Z,2.10
2023-07-11T19:41:25.934Z,2.90
2023-07-11T19:43:59.240Z,2.22
2023-07-11T19:46:32.585Z,2.70
2023-07-11T19:49:05.872Z,2.47
2023-07-11T19:51:39.226Z,2.30
2023-07-11T19:54:18.542Z,2.30
2023-07-11T19:56:52.114Z,2.65
2023-07-11T19:59:25.477Z,3.47
2023-07-11T20:01:59.051Z,3.00
2023-07-11T20:04:32.508Z,2.55
2023-07-11T20:07:10.827Z,2.20
2023-07-11T20:09:46.081Z,3.13
2023-07-11T20:12:29.793Z,2.97
2023-07-11T20:15:03.279Z,2.40
2023-07-11T20:17:36.864Z,2.38
2023-07-11T20:20:22.275Z,2.97
2023-07-11T20:22:55.706Z,2.03
2023-07-11T20:25:30.477Z,2.20
2023-07-11T20:28:13.792Z,2.50
2023-07-11T20:30:54.525Z,2.93
2023-07-11T20:33:27.779Z,2.47
2023-07-11T20:36:01.243Z,3.17
2023-07-11T20:38:34.542Z,3.17
2023-07-11T20:41:11.460Z,3.20
2023-07-11T20:43:45.687Z,2.42
2023-07-11T20:46:21.141Z,2.50
2023-07-11T20:48:54.604Z,2.65
2023-07-11T20:51:27.875Z,2.40
2023-07-11T20:54:01.339Z,2.72
2023-07-11T20:56:36.124Z,2.10
2023-07-11T20:59:13.165Z,2.53
2023-07-11T21:01:46.832Z,2.80
2023-07-11T21:06:53.453Z,2.42
2023-07-11T21:09:26.731Z,2.58
2023-07-11T21:12:01.424Z,2.47
2023-07-11T21:14:34.730Z,2.40
2023-07-11T21:17:08.116Z,2.55
2023-07-11T21:19:47.795Z,2.95
2023-07-11T21:22:21.168Z,2.38
2023-07-11T21:24:54.525Z,2.67
2023-07-11T21:27:31.376Z,3.10
2023-07-11T21:30:25.569Z,2.33
2023-07-11T21:32:59.432Z,2.60
2023-07-11T21:35:33.388Z,2.67
2023-07-11T21:38:08.012Z,2.45
2023-07-11T21:40:41.309Z,2.78
2023-07-11T21:43:15.927Z,3.25
2023-07-11T21:45:50.904Z,2.78
2023-07-11T21:48:25.863Z,2.67
2023-07-11T21:50:59.895Z,2.95
2023-07-11T21:53:34.455Z,2.53
2023-07-11T21:56:22.631Z,2.65
2023-07-11T21:59:01.851Z,2.63
2023-07-11T22:01:36.130Z,2.65
2023-07-11T22:04:09.551Z,2.45
2023-07-11T22:06:42.829Z,2.42
2023-07-11T22:09:19.790Z,3.22
2023-07-11T22:11:53.141Z,2.28
2023-07-11T22:14:27.790Z,3.30
2023-07-11T22:17:17.447Z,3.13
2023-07-11T22:19:54.705Z,2.77
2023-07-11T22:22:29.211Z,2.92
2023-07-11T22:25:04.783Z,2.20
2023-07-11T22:27:38.106Z,3.53
2023-07-11T22:30:31.749Z,3.05
2023-07-11T22:33:06.155Z,2.70
2023-07-11T22:35:39.910Z,2.42
2023-07-11T22:38:14.703Z,2.70
2023-07-11T22:40:50.028Z,3.42
2023-07-11T22:43:27.274Z,3.17
2023-07-11T22:46:15.282Z,2.55
2023-07-11T22:48:49.539Z,2.75
2023-07-11T22:51:22.857Z,2.92
2023-07-11T22:53:56.172Z,3.05
2023-07-11T22:56:29.397Z,2.70
2023-07-11T22:59:02.686Z,2.80
2023-07-11T23:01:46.455Z,2.58
2023-07-11T23:04:19.757Z,3.17
2023-07-11T23:06:53.156Z,2.78
2023-07-11T23:09:26.702Z,2.67
2023-07-11T23:11:59.955Z,2.38
2023-07-11T23:14:33.229Z,2.53
2023-07-11T23:17:10.370Z,2.92
2023-07-11T23:19:43.659Z,2.65
2023-07-11T23:22:16.947Z,2.72
2023-07-11T23:24:50.253Z,2.92
2023-07-11T23:27:23.521Z,2.70
2023-07-11T23:29:56.799Z,2.83
2023-07-11T23:32:39.049Z,3.08
2023-07-11T23:35:12.359Z,3.08
2023-07-11T23:37:45.736Z,2.40
2023-07-11T23:40:26.470Z,2.47
2023-07-11T23:42:59.904Z,3.30
2023-07-11T23:45:35.446Z,2.22
2023-07-11T23:48:19.544Z,3.15
2023-07-11T23:53:28.366Z,2.88
2023-07-11T23:56:01.706Z,2.70
2023-07-11T23:58:35.190Z,2.53
